Time;durP1;ratioP1;P1;durP2;ratioP2;P2;SDS_P1;SDS_P2;PMS_P1;PMS_P2;Temp;Humidity;BMP_temperature;BMP_pressure;BME280_temperature;BME280_humidity;BME280_pressure;Samples;Min_cycle;Max_cycle;Signal;HPM_P1;HPM_P2
2020/12/06 00:00:09;;;;;;;29.47;19.90;;;2.00;85.70;;;;;;5111016;28;20395;-77
2020/12/06 00:02:35;;;;;;;27.30;19.33;;;2.10;86.10;;;;;;5078114;28;20379;-78
2020/12/06 00:05:02;;;;;;;26.60;18.27;;;2.10;86.00;;;;;;5109842;28;20031;-78
2020/12/06 00:07:28;;;;;;;25.50;18.23;;;2.10;86.00;;;;;;5074445;28;20024;-78
2020/12/06 00:09:54;;;;;;;26.73;18.03;;;2.00;85.90;;;;;;5074401;28;20035;-78
2020/12/06 00:12:19;;;;;;;27.63;18.80;;;2.00;86.00;;;;;;5091388;28;20132;-78
2020/12/06 00:14:45;;;;;;;28.97;20.40;;;1.90;86.10;;;;;;5099857;28;20031;-78
2020/12/06 00:17:10;;;;;;;32.57;21.63;;;1.80;86.40;;;;;;5110363;28;20032;-78
2020/12/06 00:19:36;;;;;;;32.23;21.43;;;1.80;86.60;;;;;;5090770;28;20391;-78
2020/12/06 00:22:01;;;;;;;33.40;22.80;;;1.80;86.70;;;;;;5092881;28;20084;-78
2020/12/06 00:24:27;;;;;;;32.57;22.20;;;1.80;86.90;;;;;;5110293;28;20067;-78
2020/12/06 00:26:57;;;;;;;34.43;22.53;;;1.80;87.10;;;;;;5094770;28;20521;-77
2020/12/06 00:29:22;;;;;;;34.70;22.20;;;1.80;87.10;;;;;;5092595;28;20024;-78
2020/12/06 00:31:48;;;;;;;38.00;23.07;;;1.80;87.20;;;;;;5111361;28;20420;-78
2020/12/06 00:34:14;;;;;;;40.30;25.50;;;1.90;87.20;;;;;;5093339;28;20045;-78
2020/12/06 00:36:39;;;;;;;40.73;25.10;;;2.10;87.40;;;;;;5094197;28;20471;-78
2020/12/06 00:39:05;;;;;;;41.00;25.53;;;2.20;87.40;;;;;;5111062;28;20035;-77
2020/12/06 00:41:30;;;;;;;42.37;26.13;;;2.30;87.40;;;;;;5085725;28;20032;-77
2020/12/06 00:43:56;;;;;;;36.50;24.30;;;2.40;87.90;;;;;;5112339;28;20055;-77
2020/12/06 00:46:22;;;;;;;36.43;24.30;;;2.60;88.30;;;;;;5129808;28;20039;-78
2020/12/06 00:48:48;;;;;;;37.33;22.67;;;2.80;88.40;;;;;;5130898;28;20032;-78
2020/12/06 00:51:14;;;;;;;35.27;23.13;;;2.90;88.30;;;;;;5127317;28;20030;-77
2020/12/06 00:53:42;;;;;;;32.07;21.50;;;3.00;88.10;;;;;;5117466;28;20024;-78
2020/12/06 00:56:17;;;;;;;34.90;23.23;;;3.00;87.70;;;;;;5101469;28;20048;-78
2020/12/06 00:58:43;;;;;;;28.43;20.27;;;3.00;87.60;;;;;;5121426;28;20031;-79
2020/12/06 01:01:09;;;;;;;30.53;20.90;;;3.00;87.30;;;;;;5119240;28;20055;-78
2020/12/06 01:03:34;;;;;;;30.67;20.97;;;2.90;87.00;;;;;;5111690;28;20028;-78
2020/12/06 01:06:00;;;;;;;28.37;20.53;;;2.70;86.70;;;;;;5094307;28;20035;-78
2020/12/06 01:08:25;;;;;;;30.63;20.60;;;2.60;86.70;;;;;;5093368;28;20119;-77
2020/12/06 01:10:51;;;;;;;30.07;21.00;;;2.40;86.80;;;;;;5074219;28;20028;-78
2020/12/06 01:13:16;;;;;;;32.20;21.57;;;2.30;87.00;;;;;;5094668;28;20039;-78
2020/12/06 01:15:42;;;;;;;33.87;22.07;;;2.20;87.10;;;;;;5089818;28;20048;-78
2020/12/06 01:18:08;;;;;;;34.33;23.17;;;2.20;87.20;;;;;;5089544;28;20036;-77
2020/12/06 01:20:33;;;;;;;30.53;20.83;;;2.30;87.50;;;;;;5089383;28;20055;-78
2020/12/06 01:22:59;;;;;;;33.57;23.03;;;2.30;87.50;;;;;;5092954;28;20479;-78
2020/12/06 01:25:24;;;;;;;31.70;21.00;;;2.40;87.40;;;;;;5109411;28;20434;-78
2020/12/06 01:27:50;;;;;;;33.53;22.07;;;2.30;87.30;;;;;;5111767;28;20471;-78
2020/12/06 01:30:16;;;;;;;32.80;22.10;;;2.30;87.50;;;;;;5075842;28;20043;-78
2020/12/06 01:32:41;;;;;;;31.60;21.33;;;2.30;87.60;;;;;;5090728;28;20039;-78
2020/12/06 01:35:07;;;;;;;32.20;21.80;;;2.30;87.60;;;;;;5093385;28;20047;-78
2020/12/06 01:37:32;;;;;;;31.83;22.07;;;2.30;87.50;;;;;;5076484;28;20034;-78
2020/12/06 01:39:58;;;;;;;31.40;21.80;;;2.30;87.50;;;;;;5093204;28;20039;-78
2020/12/06 01:42:24;;;;;;;35.33;22.33;;;2.30;87.60;;;;;;5109370;28;20466;-77
2020/12/06 01:44:59;;;;;;;35.27;22.63;;;2.40;87.90;;;;;;5110074;28;20035;-78
2020/12/06 01:47:29;;;;;;;34.57;21.90;;;2.60;88.30;;;;;;5109081;28;20036;-78
2020/12/06 01:49:56;;;;;;;33.13;21.13;;;2.80;88.50;;;;;;5109644;28;20424;-78
2020/12/06 01:52:22;;;;;;;29.53;20.60;;;2.90;88.50;;;;;;5110747;28;20107;-78
2020/12/06 01:54:51;;;;;;;31.00;20.30;;;2.90;88.40;;;;;;5092306;28;20193;-78
2020/12/06 01:57:17;;;;;;;28.10;19.70;;;2.90;87.90;;;;;;5090503;28;20333;-78
2020/12/06 01:59:42;;;;;;;30.97;19.77;;;3.00;88.00;;;;;;5072285;28;20032;-78
2020/12/06 02:02:08;;;;;;;30.00;19.93;;;3.10;88.10;;;;;;5090075;28;20028;-78
2020/12/06 02:04:33;;;;;;;30.20;20.43;;;3.00;87.50;;;;;;5052687;28;20036;-79
2020/12/06 02:07:00;;;;;;;27.43;19.50;;;2.90;87.40;;;;;;5088824;28;20043;-78
2020/12/06 02:09:30;;;;;;;28.80;19.17;;;2.90;87.30;;;;;;5071704;28;20485;-78
2020/12/06 02:11:56;;;;;;;29.80;19.33;;;2.80;87.00;;;;;;5072042;28;20032;-79
2020/12/06 02:14:22;;;;;;;28.87;20.47;;;2.90;87.40;;;;;;5071331;28;20119;-79
2020/12/06 02:16:52;;;;;;;30.57;20.17;;;2.90;87.50;;;;;;5089113;28;20124;-79
2020/12/06 02:19:17;;;;;;;30.00;20.00;;;3.00;87.70;;;;;;5072039;28;20027;-78
2020/12/06 02:21:43;;;;;;;27.63;19.20;;;3.10;87.80;;;;;;5097434;28;20511;-78
2020/12/06 02:24:15;;;;;;;28.77;18.67;;;3.20;87.70;;;;;;5101890;28;20032;-77
2020/12/06 02:26:51;;;;;;;26.73;18.97;;;3.20;87.40;;;;;;5090445;28;20480;-78
2020/12/06 02:29:17;;;;;;;27.90;18.93;;;3.00;86.70;;;;;;5088123;28;20028;-77
2020/12/06 02:31:43;;;;;;;25.57;18.77;;;2.90;86.70;;;;;;5089339;28;20123;-77
2020/12/06 02:34:10;;;;;;;25.97;18.07;;;2.80;86.30;;;;;;5089531;28;20021;-78
2020/12/06 02:36:36;;;;;;;27.00;18.33;;;2.80;86.70;;;;;;5088371;28;20039;-78
2020/12/06 02:39:04;;;;;;;27.40;18.47;;;2.80;87.20;;;;;;5099465;28;20103;-78
2020/12/06 02:41:42;;;;;;;27.97;19.00;;;3.00;87.60;;;;;;5096465;28;20020;-78
2020/12/06 02:44:11;;;;;;;25.73;17.73;;;3.00;87.50;;;;;;5089010;28;20364;-78
2020/12/06 02:46:37;;;;;;;30.30;19.00;;;3.10;87.40;;;;;;5089770;28;20028;-78
2020/12/06 02:49:04;;;;;;;26.27;19.27;;;3.10;87.20;;;;;;5072526;28;20395;-78
2020/12/06 02:51:30;;;;;;;27.83;18.83;;;2.90;86.30;;;;;;5089997;28;20024;-78
2020/12/06 02:53:56;;;;;;;28.03;19.10;;;2.80;86.60;;;;;;5093054;28;20054;-78
2020/12/06 02:56:22;;;;;;;28.90;20.30;;;2.90;87.20;;;;;;5131906;27;20104;-78
2020/12/06 02:58:48;;;;;;;26.70;19.17;;;3.00;87.30;;;;;;5095737;28;20036;-78
2020/12/06 03:01:13;;;;;;;30.87;19.57;;;2.90;86.70;;;;;;5097937;27;20077;-78
2020/12/06 03:03:40;;;;;;;29.83;20.40;;;2.80;86.20;;;;;;5116120;27;20023;-78
2020/12/06 03:06:06;;;;;;;29.60;19.97;;;2.60;86.00;;;;;;5134744;27;20023;-78
2020/12/06 03:08:31;;;;;;;29.63;20.80;;;2.50;86.20;;;;;;5115271;27;20364;-78
2020/12/06 03:10:57;;;;;;;30.70;19.90;;;2.40;86.20;;;;;;5099101;27;20026;-78
2020/12/06 03:13:23;;;;;;;29.30;19.27;;;2.40;86.30;;;;;;5098458;27;20382;-77
2020/12/06 03:15:49;;;;;;;30.20;20.27;;;2.40;86.50;;;;;;5116299;27;20023;-77
2020/12/06 03:18:14;;;;;;;27.50;19.27;;;2.50;87.00;;;;;;5121064;27;20031;-76
2020/12/06 03:20:40;;;;;;;29.17;18.97;;;2.60;87.00;;;;;;5140674;27;20102;-77
2020/12/06 03:23:06;;;;;;;28.50;19.80;;;2.70;87.10;;;;;;5104275;27;20027;-76
2020/12/06 03:25:31;;;;;;;28.47;19.73;;;2.70;86.80;;;;;;5102646;27;20028;-78
2020/12/06 03:27:57;;;;;;;30.23;19.43;;;2.50;86.40;;;;;;5116035;27;20023;-78
2020/12/06 03:30:22;;;;;;;31.03;21.23;;;2.40;86.30;;;;;;5114909;27;20059;-78
2020/12/06 03:32:48;;;;;;;30.00;20.93;;;2.20;86.30;;;;;;5115495;27;20035;-78
2020/12/06 03:35:14;;;;;;;32.67;20.43;;;2.10;86.30;;;;;;5098374;27;20054;-78
2020/12/06 03:37:39;;;;;;;30.87;20.87;;;2.10;86.60;;;;;;5133026;27;20034;-77
2020/12/06 03:40:05;;;;;;;28.83;19.60;;;2.20;86.80;;;;;;5098732;27;20386;-78
2020/12/06 03:42:30;;;;;;;30.10;20.13;;;2.20;86.80;;;;;;5097699;27;20051;-78
2020/12/06 03:44:56;;;;;;;28.87;19.90;;;2.30;86.80;;;;;;5115034;27;20086;-78
2020/12/06 03:47:22;;;;;;;29.67;19.97;;;2.30;86.50;;;;;;5097452;27;20036;-78
2020/12/06 03:49:47;;;;;;;30.57;19.70;;;2.30;86.50;;;;;;5114939;27;20027;-78
2020/12/06 03:52:13;;;;;;;28.37;19.70;;;2.40;86.60;;;;;;5098035;27;20043;-78
2020/12/06 03:54:38;;;;;;;32.87;20.30;;;2.40;86.60;;;;;;5131867;27;20059;-78
2020/12/06 03:57:04;;;;;;;28.80;19.30;;;2.50;86.70;;;;;;5115003;27;20038;-78
2020/12/06 03:59:30;;;;;;;28.03;18.50;;;2.50;86.50;;;;;;5132256;27;20034;-78
2020/12/06 04:01:56;;;;;;;31.93;20.93;;;2.50;86.50;;;;;;5115039;27;20028;-78
2020/12/06 04:04:22;;;;;;;29.77;19.93;;;2.50;86.10;;;;;;5114177;27;20046;-77
2020/12/06 04:06:47;;;;;;;27.57;18.50;;;2.50;86.00;;;;;;5097672;27;20034;-78
2020/12/06 04:09:13;;;;;;;28.30;20.17;;;2.50;86.10;;;;;;5133208;27;20077;-77
2020/12/06 04:11:38;;;;;;;30.53;19.47;;;2.50;86.20;;;;;;5096708;27;20030;-78
2020/12/06 04:14:04;;;;;;;31.90;20.80;;;2.50;86.10;;;;;;5098589;27;20101;-78
2020/12/06 04:16:29;;;;;;;29.93;19.67;;;2.40;85.80;;;;;;5113734;27;20028;-78
2020/12/06 04:18:55;;;;;;;29.13;18.63;;;2.30;85.90;;;;;;5097446;27;20027;-78
2020/12/06 04:21:21;;;;;;;32.37;20.87;;;2.40;86.20;;;;;;5113189;27;20351;-78
2020/12/06 04:23:46;;;;;;;27.47;18.73;;;2.50;86.60;;;;;;5114099;27;20035;-78
2020/12/06 04:26:12;;;;;;;25.87;18.67;;;2.70;87.10;;;;;;5113911;27;20501;-78
2020/12/06 04:28:38;;;;;;;25.87;17.27;;;2.70;86.70;;;;;;5108734;27;20065;-78
2020/12/06 04:31:03;;;;;;;28.67;17.87;;;2.80;86.70;;;;;;5097359;27;20035;-78
2020/12/06 04:33:29;;;;;;;25.33;16.70;;;2.80;86.90;;;;;;5131729;27;20471;-78
2020/12/06 04:35:54;;;;;;;24.77;16.17;;;2.90;87.00;;;;;;5096894;27;20518;-78
2020/12/06 04:38:20;;;;;;;27.10;17.47;;;3.10;87.20;;;;;;5096526;27;20079;-77
2020/12/06 04:40:46;;;;;;;22.93;16.03;;;3.10;86.90;;;;;;5096452;27;20031;-78
2020/12/06 04:43:14;;;;;;;25.73;16.73;;;3.00;86.30;;;;;;5113779;27;20031;-77
2020/12/06 04:45:41;;;;;;;26.80;16.00;;;3.00;86.50;;;;;;5131216;27;20023;-78
2020/12/06 04:48:09;;;;;;;23.07;16.20;;;3.00;86.70;;;;;;5132006;27;20031;-78
2020/12/06 04:50:36;;;;;;;24.97;15.87;;;3.10;87.00;;;;;;5112777;27;20057;-78
2020/12/06 04:53:05;;;;;;;23.97;15.23;;;3.20;87.10;;;;;;5113051;27;20482;-78
2020/12/06 04:55:35;;;;;;;24.47;15.70;;;3.30;86.70;;;;;;5112301;27;20047;-78
2020/12/06 04:58:03;;;;;;;22.33;15.20;;;3.30;86.40;;;;;;5132422;27;20046;-78
2020/12/06 05:00:31;;;;;;;22.10;15.33;;;3.20;85.90;;;;;;5112699;27;20031;-77
2020/12/06 05:03:05;;;;;;;20.83;15.40;;;3.30;86.00;;;;;;5113453;27;20114;-78
2020/12/06 05:05:38;;;;;;;24.80;15.43;;;3.30;86.00;;;;;;5131162;27;20437;-79
2020/12/06 05:08:09;;;;;;;22.03;14.67;;;3.30;85.90;;;;;;5131457;27;20019;-76
2020/12/06 05:10:49;;;;;;;21.43;14.77;;;3.30;85.50;;;;;;5131069;27;20019;-77
2020/12/06 05:13:16;;;;;;;20.27;14.83;;;3.20;85.30;;;;;;5113051;27;20118;-76
2020/12/06 05:15:43;;;;;;;22.30;15.20;;;3.20;85.70;;;;;;5130340;27;20038;-77
2020/12/06 05:18:09;;;;;;;21.00;15.10;;;3.30;86.10;;;;;;5113079;27;20027;-77
2020/12/06 05:20:36;;;;;;;24.33;16.30;;;3.30;86.20;;;;;;5112433;27;20034;-77
2020/12/06 05:23:02;;;;;;;23.50;15.87;;;3.30;85.30;;;;;;5113157;27;20023;-77
2020/12/06 05:25:28;;;;;;;19.37;14.83;;;3.10;85.40;;;;;;5112450;27;20035;-78
2020/12/06 05:27:53;;;;;;;23.17;15.40;;;3.00;85.30;;;;;;5131501;27;20092;-77
2020/12/06 05:30:19;;;;;;;22.90;16.13;;;3.00;85.30;;;;;;5131392;27;20390;-78
2020/12/06 05:32:45;;;;;;;21.73;15.27;;;2.90;85.50;;;;;;5112672;27;20874;-77
2020/12/06 05:35:12;;;;;;;27.43;15.77;;;2.80;85.20;;;;;;5113397;27;20023;-77
2020/12/06 05:37:40;;;;;;;25.07;16.13;;;2.70;85.10;;;;;;5130927;27;20027;-77
2020/12/06 05:40:08;;;;;;;20.97;14.40;;;2.70;85.00;;;;;;5131502;27;20023;-77
2020/12/06 05:42:35;;;;;;;26.07;15.77;;;2.70;85.20;;;;;;5110345;28;20027;-77
2020/12/06 05:45:01;;;;;;;22.67;15.87;;;2.80;85.90;;;;;;5102099;27;20030;-77
2020/12/06 05:47:27;;;;;;;24.60;15.80;;;2.90;85.50;;;;;;5111795;28;20466;-77
2020/12/06 05:49:56;;;;;;;23.90;15.90;;;2.70;85.00;;;;;;5130958;28;20558;-78
2020/12/06 05:52:23;;;;;;;23.27;16.07;;;2.60;84.90;;;;;;5087949;28;20049;-77
2020/12/06 05:54:49;;;;;;;25.07;16.83;;;2.60;85.00;;;;;;5110396;28;20054;-77
2020/12/06 05:57:14;;;;;;;28.23;17.00;;;2.70;85.30;;;;;;5123468;28;20388;-78
2020/12/06 05:59:41;;;;;;;25.57;17.30;;;2.60;84.80;;;;;;5111996;28;20023;-76
2020/12/06 06:02:08;;;;;;;23.20;15.73;;;2.50;84.80;;;;;;5131223;28;20058;-77
2020/12/06 06:04:38;;;;;;;24.23;16.50;;;2.40;84.80;;;;;;5112121;28;20020;-77
2020/12/06 06:07:11;;;;;;;26.57;17.27;;;2.20;85.20;;;;;;5113335;28;20078;-76
2020/12/06 06:09:41;;;;;;;24.75;16.80;;;2.20;85.30;;;;;;5112341;28;20015;-77
2020/12/06 06:12:24;;;;;;;23.83;17.00;;;2.20;85.30;;;;;;5113129;28;20027;-78
2020/12/06 06:14:53;;;;;;;28.10;16.88;;;2.20;85.50;;;;;;5092112;28;20032;-77
2020/12/06 06:17:22;;;;;;;29.37;17.53;;;2.30;85.70;;;;;;5112710;28;20039;-78
2020/12/06 06:19:49;;;;;;;26.77;17.80;;;2.40;85.50;;;;;;5112219;28;20467;-77
2020/12/06 06:22:17;;;;;;;27.60;18.47;;;2.30;85.20;;;;;;5113334;28;20530;-77
2020/12/06 06:24:44;;;;;;;28.60;18.57;;;2.40;85.60;;;;;;5130444;28;20036;-77
2020/12/06 06:27:11;;;;;;;27.33;18.10;;;2.50;85.70;;;;;;5114452;27;20351;-77
2020/12/06 06:29:37;;;;;;;28.77;19.27;;;2.60;85.50;;;;;;5116127;27;20024;-78
2020/12/06 06:32:03;;;;;;;28.80;18.67;;;2.40;85.20;;;;;;5099883;27;20410;-77
2020/12/06 06:34:31;;;;;;;27.53;18.53;;;2.30;85.00;;;;;;5099235;27;20027;-77
2020/12/06 06:36:57;;;;;;;29.17;19.30;;;2.30;85.30;;;;;;5135514;27;20048;-77
2020/12/06 06:39:24;;;;;;;25.37;17.60;;;2.30;85.40;;;;;;5135048;27;20109;-77
2020/12/06 06:42:07;;;;;;;26.80;18.07;;;2.30;85.30;;;;;;5115727;27;20023;-77
2020/12/06 06:44:42;;;;;;;29.25;18.88;;;2.30;85.30;;;;;;5115815;27;20035;-77
2020/12/06 06:47:10;;;;;;;29.57;19.57;;;2.50;85.70;;;;;;5116488;27;20031;-77
2020/12/06 06:50:03;;;;;;;30.20;19.77;;;2.70;86.10;;;;;;5095416;28;20031;-77
2020/12/06 06:52:29;;;;;;;25.85;17.70;;;3.00;86.60;;;;;;5093462;28;20113;-76
2020/12/06 06:54:57;;;;;;;29.93;17.73;;;3.10;86.00;;;;;;5078801;28;20082;-77
2020/12/06 06:57:25;;;;;;;27.63;17.90;;;3.00;85.30;;;;;;5130612;27;20043;-77
2020/12/06 06:59:53;;;;;;;25.50;17.27;;;2.90;85.00;;;;;;5095237;28;20467;-77
2020/12/06 07:02:27;;;;;;;27.13;17.53;;;3.00;85.60;;;;;;5098713;28;20019;-77
2020/12/06 07:04:53;;;;;;;26.27;18.03;;;3.10;85.60;;;;;;5104542;27;20159;-78
2020/12/06 07:07:38;;;;;;;26.77;17.87;;;3.00;84.90;;;;;;5099383;27;20193;-77
2020/12/06 07:10:05;;;;;;;28.23;18.67;;;2.80;84.40;;;;;;5116529;27;20083;-77
2020/12/06 07:12:51;;;;;;;27.27;19.37;;;2.80;85.30;;;;;;5133832;27;20075;-76
2020/12/06 07:15:21;;;;;;;27.33;16.60;;;3.10;86.00;;;;;;5134276;27;20038;-77
2020/12/06 07:17:48;;;;;;;27.07;17.60;;;3.20;85.70;;;;;;5133845;27;20035;-77
2020/12/06 07:20:15;;;;;;;25.83;17.20;;;3.10;84.80;;;;;;5115799;27;20031;-76
2020/12/06 07:22:41;;;;;;;25.70;17.90;;;2.90;84.50;;;;;;5115218;27;20038;-77
2020/12/06 07:25:09;;;;;;;28.13;19.10;;;3.00;85.10;;;;;;5133725;27;20528;-77
2020/12/06 07:27:35;;;;;;;25.83;17.77;;;3.20;85.70;;;;;;5132362;27;20326;-77
2020/12/06 07:30:02;;;;;;;28.73;17.83;;;3.30;85.30;;;;;;5089686;27;20030;-77
2020/12/06 07:32:28;;;;;;;24.30;17.17;;;3.40;85.90;;;;;;5132458;27;20398;-77
2020/12/06 07:34:54;;;;;;;23.47;16.23;;;3.60;86.20;;;;;;5113697;27;20046;-78
2020/12/06 07:37:21;;;;;;;25.37;16.73;;;3.70;86.00;;;;;;5104528;27;20038;-78
2020/12/06 07:39:48;;;;;;;23.83;16.17;;;3.80;86.10;;;;;;5090291;27;20470;-78
2020/12/06 07:42:20;;;;;;;26.50;17.70;;;3.90;86.10;;;;;;5124806;27;20085;-78
2020/12/06 07:44:48;;;;;;;26.65;18.05;;;4.00;86.90;;;;;;5089777;27;20509;-77
2020/12/06 07:47:14;;;;;;;28.87;18.70;;;4.20;86.60;;;;;;5122808;27;20041;-78
2020/12/06 07:49:54;;;;;;;29.53;18.60;;;4.30;86.40;;;;;;5087607;27;20032;-78
2020/12/06 07:52:23;;;;;;;28.70;18.03;;;4.40;86.30;;;;;;5121730;27;20023;-78
2020/12/06 07:54:59;;;;;;;28.30;19.03;;;4.50;86.00;;;;;;5123525;27;20054;-78
2020/12/06 07:57:40;;;;;;;26.90;19.80;;;4.50;85.60;;;;;;5131461;27;20061;-79
2020/12/06 08:00:19;;;;;;;31.10;19.33;;;4.60;85.50;;;;;;5126939;27;20027;-78
2020/12/06 08:02:57;;;;;;;30.43;19.37;;;4.60;85.10;;;;;;5112366;27;20034;-76
2020/12/06 08:05:26;;;;;;;25.77;17.30;;;4.60;85.00;;;;;;5089694;27;20031;-76
2020/12/06 08:08:01;;;;;;;26.17;18.50;;;4.60;84.40;;;;;;5109595;27;20108;-76
2020/12/06 08:10:28;;;;;;;28.47;19.80;;;4.30;82.40;;;;;;5122235;27;20039;-78
2020/12/06 08:12:55;;;;;;;33.23;21.67;;;4.10;83.30;;;;;;5104943;27;20627;-76
2020/12/06 08:15:25;;;;;;;35.80;23.20;;;4.20;85.00;;;;;;5097994;27;20118;-77
2020/12/06 08:17:52;;;;;;;32.10;22.40;;;4.30;85.10;;;;;;5131302;27;20027;-76
2020/12/06 08:20:24;;;;;;;37.30;24.03;;;4.40;84.90;;;;;;5114473;27;20108;-77
2020/12/06 08:22:58;;;;;;;38.40;24.65;;;4.40;84.80;;;;;;5131545;27;20031;-77
2020/12/06 08:25:32;;;;;;;36.90;24.23;;;4.60;85.10;;;;;;5113775;27;20372;-76
2020/12/06 08:28:00;;;;;;;35.03;23.20;;;4.70;85.20;;;;;;5135607;27;20023;-76
2020/12/06 08:30:28;;;;;;;33.43;22.27;;;4.70;84.90;;;;;;5127642;27;20027;-76
2020/12/06 08:32:59;;;;;;;31.20;20.83;;;4.80;84.40;;;;;;5115630;27;20252;-76
2020/12/06 08:35:46;;;;;;;29.30;20.10;;;4.60;83.30;;;;;;5151470;27;20040;-78
2020/12/06 08:38:25;;;;;;;28.60;20.27;;;4.20;81.70;;;;;;5144823;27;20035;-78
2020/12/06 08:41:05;;;;;;;31.67;21.43;;;3.90;81.90;;;;;;5113051;27;20050;-77
2020/12/06 08:44:05;;;;;;;33.17;21.77;;;3.80;82.80;;;;;;5134071;27;20023;-77
2020/12/06 08:46:32;;;;;;;32.03;21.13;;;3.70;82.70;;;;;;5110762;28;20019;-77
2020/12/06 08:49:00;;;;;;;29.43;20.17;;;3.70;82.70;;;;;;5096706;27;20152;-77
2020/12/06 08:51:36;;;;;;;33.27;22.03;;;3.60;82.20;;;;;;5126792;27;20024;-76
2020/12/06 08:54:04;;;;;;;33.93;21.73;;;3.60;82.50;;;;;;5129511;27;20474;-77
2020/12/06 08:56:37;;;;;;;31.87;21.37;;;3.60;82.80;;;;;;5103890;27;20039;-77
2020/12/06 08:59:16;;;;;;;35.80;21.67;;;3.50;82.70;;;;;;5109670;27;20087;-77
2020/12/06 09:01:47;;;;;;;32.93;21.07;;;3.40;82.70;;;;;;5131336;27;20042;-78
2020/12/06 09:04:14;;;;;;;35.53;22.20;;;3.40;82.80;;;;;;5101411;28;20031;-76
2020/12/06 09:06:39;;;;;;;36.60;23.17;;;3.30;82.70;;;;;;5110213;28;20031;-77
2020/12/06 09:09:06;;;;;;;37.87;24.60;;;3.30;83.10;;;;;;5094340;27;20103;-78
2020/12/06 09:11:31;;;;;;;38.10;25.63;;;3.30;83.10;;;;;;5112716;27;20027;-78
2020/12/06 09:13:57;;;;;;;40.63;25.93;;;3.30;83.40;;;;;;5094666;27;20155;-79
2020/12/06 09:16:23;;;;;;;37.00;24.33;;;3.30;83.60;;;;;;5132333;27;20501;-78
2020/12/06 09:18:48;;;;;;;46.10;28.57;;;3.40;83.30;;;;;;5071349;28;20158;-78
2020/12/06 09:21:14;;;;;;;45.33;29.33;;;3.30;83.90;;;;;;5100620;27;20027;-78
2020/12/06 09:23:40;;;;;;;46.83;26.73;;;3.40;83.70;;;;;;5108257;27;20022;-77
2020/12/06 09:26:07;;;;;;;43.60;26.50;;;3.40;83.80;;;;;;5104024;27;20106;-77
2020/12/06 09:28:33;;;;;;;45.30;28.00;;;3.50;83.70;;;;;;5099026;28;20075;-78
2020/12/06 09:31:00;;;;;;;43.27;27.37;;;3.50;83.70;;;;;;5124969;27;20134;-78
2020/12/06 09:33:26;;;;;;;53.63;31.40;;;3.50;83.70;;;;;;5116530;27;20088;-77
2020/12/06 09:35:52;;;;;;;42.40;28.63;;;3.70;84.10;;;;;;5081696;28;20036;-77
2020/12/06 09:38:18;;;;;;;42.87;28.57;;;3.70;83.70;;;;;;5105873;27;20015;-78
2020/12/06 09:40:43;;;;;;;55.30;32.17;;;3.90;83.60;;;;;;5083859;27;20049;-77
2020/12/06 09:43:09;;;;;;;53.60;31.73;;;4.00;83.70;;;;;;5101486;28;20015;-77
2020/12/06 09:45:35;;;;;;;60.17;37.87;;;4.20;83.40;;;;;;5103951;28;20405;-77
2020/12/06 09:48:01;;;;;;;46.93;29.63;;;4.40;83.60;;;;;;5105769;28;20052;-77
2020/12/06 09:50:27;;;;;;;43.03;28.20;;;4.60;83.10;;;;;;5100518;28;20028;-78
2020/12/06 09:52:53;;;;;;;46.53;29.83;;;4.70;82.80;;;;;;5124715;28;20031;-78
2020/12/06 09:55:18;;;;;;;50.07;31.33;;;4.70;82.30;;;;;;5103488;28;20060;-78
2020/12/06 09:57:44;;;;;;;50.70;33.27;;;5.00;83.20;;;;;;5104902;28;20022;-78
2020/12/06 10:00:10;;;;;;;57.47;36.07;;;5.20;82.50;;;;;;5069779;28;20492;-78
2020/12/06 10:02:35;;;;;;;58.13;37.23;;;5.40;83.30;;;;;;5128430;27;20461;-78
2020/12/06 10:05:01;;;;;;;61.67;40.17;;;5.70;83.20;;;;;;5108201;27;20183;-79
2020/12/06 10:07:27;;;;;;;58.77;37.23;;;6.00;83.00;;;;;;5109933;27;20027;-78
2020/12/06 10:09:53;;;;;;;53.43;34.40;;;6.10;82.00;;;;;;5115878;27;20149;-78
2020/12/06 10:12:19;;;;;;;41.17;26.30;;;6.40;81.90;;;;;;5116466;27;20487;-78
2020/12/06 10:14:45;;;;;;;38.13;25.17;;;6.40;80.00;;;;;;5099650;28;20035;-78
2020/12/06 10:17:11;;;;;;;43.90;28.73;;;6.30;79.20;;;;;;5126358;27;20042;-79
2020/12/06 10:19:36;;;;;;;38.83;25.83;;;6.30;79.30;;;;;;5115526;27;20057;-78
2020/12/06 10:22:02;;;;;;;49.10;29.03;;;6.20;78.40;;;;;;5115470;27;20031;-78
2020/12/06 10:24:28;;;;;;;68.07;38.67;;;6.10;79.30;;;;;;5116378;27;20725;-79
2020/12/06 10:26:56;;;;;;;47.07;28.20;;;6.40;81.00;;;;;;5098379;27;20114;-79
2020/12/06 10:29:22;;;;;;;47.13;29.20;;;6.70;80.60;;;;;;5134540;27;20111;-79
2020/12/06 10:31:53;;;;;;;43.20;28.00;;;6.70;79.50;;;;;;5134703;27;20019;-79
2020/12/06 10:34:19;;;;;;;48.40;28.87;;;6.70;78.40;;;;;;5116202;27;20083;-78
2020/12/06 10:36:52;;;;;;;41.47;27.50;;;6.80;78.90;;;;;;5116442;27;20035;-78
2020/12/06 10:39:20;;;;;;;39.10;26.23;;;6.90;78.60;;;;;;5138714;27;20031;-79
2020/12/06 10:41:50;;;;;;;52.60;32.00;;;6.90;77.80;;;;;;5117749;27;20035;-79
2020/12/06 10:44:16;;;;;;;51.53;32.57;;;6.90;78.70;;;;;;5117715;27;20574;-78
2020/12/06 10:46:42;;;;;;;40.03;26.47;;;7.10;79.50;;;;;;5134003;27;20096;-77
2020/12/06 10:49:07;;;;;;;39.37;25.37;;;7.00;76.90;;;;;;5115425;27;20080;-79
2020/12/06 10:51:33;;;;;;;39.93;25.40;;;6.60;76.80;;;;;;5098503;27;20035;-77
2020/12/06 10:53:59;;;;;;;41.90;25.63;;;6.40;76.70;;;;;;5113752;27;20431;-77
2020/12/06 10:56:26;;;;;;;40.23;26.67;;;6.20;77.00;;;;;;5115203;27;20066;-78
2020/12/06 10:58:55;;;;;;;37.00;25.27;;;6.10;77.70;;;;;;5114889;27;20035;-77
2020/12/06 11:01:26;;;;;;;41.03;27.47;;;5.90;77.90;;;;;;5115828;27;20443;-78
2020/12/06 11:03:51;;;;;;;43.40;27.00;;;5.90;78.60;;;;;;5114465;27;20020;-78
2020/12/06 11:06:21;;;;;;;43.07;28.17;;;5.80;79.00;;;;;;5097666;27;20023;-78
2020/12/06 11:08:47;;;;;;;41.83;28.90;;;5.60;78.80;;;;;;5103491;28;20114;-77
2020/12/06 11:11:18;;;;;;;39.80;28.43;;;5.40;78.90;;;;;;5113052;27;20061;-78
2020/12/06 11:13:45;;;;;;;39.67;27.67;;;5.30;79.10;;;;;;5096910;27;20034;-77
2020/12/06 11:16:18;;;;;;;46.93;30.90;;;5.40;79.70;;;;;;5097902;27;20058;-77
2020/12/06 11:18:44;;;;;;;;;;;5.40;79.70;;;;;;5115063;27;20057;-77
2020/12/06 11:21:10;;;;;;;46.50;29.97;;;5.60;79.70;;;;;;5114640;27;19948;-78
2020/12/06 11:23:36;;;;;;;50.07;32.43;;;5.70;79.90;;;;;;5097858;27;20027;-78
2020/12/06 11:26:01;;;;;;;45.80;29.97;;;5.70;79.70;;;;;;5093827;28;20038;-78
2020/12/06 11:28:27;;;;;;;51.53;33.97;;;5.90;80.00;;;;;;5078230;28;20028;-78
2020/12/06 11:30:53;;;;;;;40.80;27.63;;;5.90;80.10;;;;;;5112524;28;20035;-78
2020/12/06 11:33:18;;;;;;;43.13;28.63;;;6.00;79.50;;;;;;5095483;27;20398;-79
2020/12/06 11:35:45;;;;;;;49.57;32.83;;;6.00;79.70;;;;;;5114146;27;20043;-77
2020/12/06 11:38:11;;;;;;;42.23;28.93;;;6.10;79.80;;;;;;5114615;27;20031;-78
2020/12/06 11:40:37;;;;;;;49.00;30.40;;;6.20;79.20;;;;;;5097430;27;20775;-78
2020/12/06 11:43:02;;;;;;;57.00;34.70;;;6.10;79.20;;;;;;5096646;27;20031;-78
2020/12/06 11:45:28;;;;;;;57.07;36.47;;;6.20;79.70;;;;;;5093508;28;20433;-77
2020/12/06 11:47:54;;;;;;;62.57;39.50;;;6.40;81.00;;;;;;5113105;27;20023;-78
2020/12/06 11:50:19;;;;;;;78.07;40.73;;;6.60;81.20;;;;;;5114469;27;20031;-78
2020/12/06 11:52:45;;;;;;;67.13;40.07;;;6.80;81.10;;;;;;5092115;28;20077;-78
2020/12/06 11:55:11;;;;;;;63.57;37.23;;;7.00;80.80;;;;;;5084260;28;20043;-78
2020/12/06 11:57:37;;;;;;;66.50;39.57;;;7.10;80.00;;;;;;5103911;27;20036;-78
2020/12/06 12:00:07;;;;;;;61.57;37.67;;;7.10;79.60;;;;;;5099789;27;20063;-78
2020/12/06 12:02:33;;;;;;;58.07;37.07;;;7.30;79.90;;;;;;5103020;27;20167;-78
2020/12/06 12:04:59;;;;;;;70.67;42.37;;;7.40;79.90;;;;;;5106651;28;20447;-79
2020/12/06 12:07:25;;;;;;;60.63;38.67;;;7.50;80.30;;;;;;5091940;28;20065;-79
2020/12/06 12:09:51;;;;;;;64.63;40.00;;;7.70;79.90;;;;;;5112264;28;20028;-79
2020/12/06 12:12:16;;;;;;;60.83;37.20;;;7.80;79.70;;;;;;5093691;28;20118;-79
2020/12/06 12:14:42;;;;;;;57.33;35.23;;;7.80;79.20;;;;;;5110741;28;20096;-80
2020/12/06 12:17:08;;;;;;;56.03;35.47;;;7.80;78.60;;;;;;5110256;28;20020;-78
2020/12/06 12:19:33;;;;;;;51.10;31.73;;;7.80;78.60;;;;;;5106859;27;20081;-79
2020/12/06 12:22:00;;;;;;;48.23;31.27;;;7.80;78.20;;;;;;5109221;28;20032;-79
2020/12/06 12:24:25;;;;;;;52.70;34.40;;;7.70;77.50;;;;;;5110859;28;20112;-78
2020/12/06 12:26:55;;;;;;;46.07;30.73;;;7.60;77.90;;;;;;5105744;28;20526;-78
2020/12/06 12:29:21;;;;;;;50.33;32.50;;;7.60;78.00;;;;;;5109844;27;20023;-80
2020/12/06 12:31:47;;;;;;;58.90;39.27;;;7.50;77.60;;;;;;5100735;28;20467;-78
2020/12/06 12:34:13;;;;;;;53.07;35.23;;;7.50;78.20;;;;;;5073557;28;20263;-78
2020/12/06 12:36:42;;;;;;;61.10;40.03;;;7.50;78.30;;;;;;5102002;28;20042;-78
2020/12/06 12:39:08;;;;;;;47.97;33.70;;;7.50;78.60;;;;;;5061430;28;20452;-77